createdAt,value
2023-02-13T00:00:47.979Z,955.51
2023-02-13T00:01:47.841Z,955.50
2023-02-13T00:02:47.892Z,955.47
2023-02-13T00:03:47.869Z,955.52
2023-02-13T00:04:47.816Z,955.45
2023-02-13T00:05:47.847Z,955.42
2023-02-13T00:06:47.854Z,955.44
2023-02-13T00:07:47.788Z,955.43
2023-02-13T00:08:47.836Z,955.41
2023-02-13T00:09:47.798Z,955.42
2023-02-13T00:10:47.784Z,955.39
2023-02-13T00:11:47.822Z,955.37
2023-02-13T00:12:47.746Z,955.37
2023-02-13T00:13:47.755Z,955.35
2023-02-13T00:14:47.745Z,955.36
2023-02-13T00:15:47.722Z,955.32
2023-02-13T00:16:47.760Z,955.35
2023-02-13T00:17:47.693Z,955.35
2023-02-13T00:18:47.663Z,955.30
2023-02-13T00:19:47.645Z,955.31
2023-02-13T00:20:47.661Z,955.32
2023-02-13T00:21:47.627Z,955.33
2023-02-13T00:22:47.639Z,955.30
2023-02-13T00:23:47.612Z,955.32
2023-02-13T00:24:47.642Z,955.29
2023-02-13T00:25:47.613Z,955.27
2023-02-13T00:26:47.583Z,955.27
2023-02-13T00:27:47.568Z,955.23
2023-02-13T00:28:47.589Z,955.21
2023-02-13T00:29:47.615Z,955.21
2023-02-13T00:30:47.693Z,955.21
2023-02-13T00:31:47.658Z,955.22
2023-02-13T00:32:47.547Z,955.20
2023-02-13T00:33:47.507Z,955.23
2023-02-13T00:34:47.635Z,955.17
2023-02-13T00:35:47.486Z,955.20
2023-02-13T00:36:47.482Z,955.18
2023-02-13T00:37:47.459Z,955.15
2023-02-13T00:38:47.507Z,955.16
2023-02-13T00:39:47.468Z,955.13
2023-02-13T00:40:47.450Z,955.17
2023-02-13T00:41:47.493Z,955.19
2023-02-13T00:42:47.425Z,955.21
2023-02-13T00:43:47.462Z,955.21
2023-02-13T00:44:47.417Z,955.25
2023-02-13T00:45:47.425Z,955.20
2023-02-13T00:46:52.324Z,955.20
2023-02-13T00:47:47.443Z,955.23
2023-02-13T00:48:47.376Z,955.20
2023-02-13T00:49:47.493Z,955.20
2023-02-13T00:50:47.348Z,955.20
2023-02-13T00:51:47.333Z,955.21
2023-02-13T00:52:47.359Z,955.23
2023-02-13T00:53:47.300Z,955.18
2023-02-13T00:54:47.357Z,955.19
2023-02-13T00:55:47.350Z,955.26
2023-02-13T00:56:47.320Z,955.30
2023-02-13T00:57:47.257Z,955.26
2023-02-13T00:58:47.318Z,955.20
2023-02-13T00:59:47.235Z,955.25
2023-02-13T01:00:47.310Z,955.22
2023-02-13T01:01:47.314Z,955.26
2023-02-13T01:02:47.198Z,955.28
2023-02-13T01:03:47.273Z,955.24
2023-02-13T01:04:47.190Z,955.27
2023-02-13T01:05:47.233Z,955.28
2023-02-13T01:06:47.250Z,955.31
2023-02-13T01:07:47.216Z,955.23
2023-02-13T01:08:47.195Z,955.25
2023-02-13T01:09:47.126Z,955.25
2023-02-13T01:10:47.138Z,955.27
2023-02-13T01:11:47.206Z,955.25
2023-02-13T01:12:47.193Z,955.26
2023-02-13T01:13:47.074Z,955.30
2023-02-13T01:14:47.094Z,955.29
2023-02-13T01:15:47.112Z,955.23
2023-02-13T01:16:51.954Z,955.24
2023-02-13T01:17:47.047Z,955.27
2023-02-13T01:18:47.115Z,955.24
2023-02-13T01:19:47.106Z,955.25
2023-02-13T01:20:47.017Z,955.27
2023-02-13T01:21:47.074Z,955.24
2023-02-13T01:22:47.009Z,955.27
2023-02-13T01:23:47.036Z,955.26
2023-02-13T01:24:47.045Z,955.26
2023-02-13T01:25:46.976Z,955.23
2023-02-13T01:26:47.028Z,955.25
2023-02-13T01:27:46.957Z,955.24
2023-02-13T01:28:46.957Z,955.24
2023-02-13T01:29:46.954Z,955.27
2023-02-13T01:30:54.669Z,955.23
2023-02-13T01:31:47.128Z,955.23
2023-02-13T01:32:46.895Z,955.20
2023-02-13T01:33:46.866Z,955.21
2023-02-13T01:34:46.864Z,955.18
2023-02-13T01:35:46.843Z,955.19
2023-02-13T01:36:46.853Z,955.21
2023-02-13T01:37:46.828Z,955.24
2023-02-13T01:38:46.827Z,955.24
2023-02-13T01:39:46.810Z,955.23
2023-02-13T01:40:46.796Z,955.24
2023-02-13T01:41:46.809Z,955.19
2023-02-13T01:42:46.770Z,955.24
2023-02-13T01:43:46.768Z,955.21
2023-02-13T01:44:46.782Z,955.22
2023-02-13T01:45:46.785Z,955.24
2023-02-13T01:46:46.762Z,955.25
2023-02-13T01:47:46.739Z,955.26
2023-02-13T01:48:46.721Z,955.26
2023-02-13T01:49:46.726Z,955.24
2023-02-13T01:50:46.707Z,955.21
2023-02-13T01:51:46.711Z,955.25
2023-02-13T01:52:46.668Z,955.27
2023-02-13T01:53:46.654Z,955.26
2023-02-13T01:54:46.639Z,955.25
2023-02-13T01:55:46.627Z,955.29
2023-02-13T01:56:46.641Z,955.28
2023-02-13T01:57:46.609Z,955.30
2023-02-13T01:58:46.613Z,955.28
2023-02-13T01:59:46.674Z,955.30
2023-02-13T02:00:46.609Z,955.28
2023-02-13T02:01:46.712Z,955.32
2023-02-13T02:02:46.692Z,955.28
2023-02-13T02:03:46.552Z,955.27
2023-02-13T02:04:46.556Z,955.31
2023-02-13T02:05:46.525Z,955.27
2023-02-13T02:06:46.555Z,955.28
2023-02-13T02:07:46.507Z,955.27
2023-02-13T02:08:46.497Z,955.26
2023-02-13T02:09:46.608Z,955.28
2023-02-13T02:10:46.484Z,955.24
2023-02-13T02:11:46.472Z,955.26
2023-02-13T02:12:46.489Z,955.29
2023-02-13T02:13:46.444Z,955.35
2023-02-13T02:14:46.438Z,955.31
2023-02-13T02:15:46.458Z,955.29
2023-02-13T02:16:46.461Z,955.29
2023-02-13T02:17:46.534Z,955.32
2023-02-13T02:18:46.470Z,955.32
2023-02-13T02:19:46.401Z,955.31
2023-02-13T02:20:46.394Z,955.35
2023-02-13T02:21:46.420Z,955.40
2023-02-13T02:22:46.354Z,955.34
2023-02-13T02:23:46.355Z,955.39
2023-02-13T02:24:46.369Z,955.40
2023-02-13T02:25:46.344Z,955.40
2023-02-13T02:26:46.341Z,955.39
2023-02-13T02:27:46.304Z,955.37
2023-02-13T02:28:46.305Z,955.38
2023-02-13T02:29:46.301Z,955.41
2023-02-13T02:30:46.359Z,955.39
2023-02-13T02:31:46.290Z,955.35
2023-02-13T02:32:46.318Z,955.38
2023-02-13T02:33:46.251Z,955.40
2023-02-13T02:34:46.236Z,955.35
2023-02-13T02:35:46.232Z,955.39
2023-02-13T02:36:46.265Z,955.39
2023-02-13T02:37:46.281Z,955.36
2023-02-13T02:38:46.200Z,955.38
2023-02-13T02:39:46.273Z,955.37
2023-02-13T02:40:46.181Z,955.38
2023-02-13T02:41:46.196Z,955.36
2023-02-13T02:42:46.163Z,955.35
2023-02-13T02:43:46.148Z,955.38
2023-02-13T02:44:46.141Z,955.39
2023-02-13T02:45:46.108Z,955.43
2023-02-13T02:46:46.247Z,955.37
2023-02-13T02:47:46.108Z,955.43
2023-02-13T02:48:46.132Z,955.44
2023-02-13T02:49:46.068Z,955.41
2023-02-13T02:50:46.062Z,955.44
2023-02-13T02:51:46.108Z,955.41
2023-02-13T02:52:46.036Z,955.45
2023-02-13T02:53:46.054Z,955.46
2023-02-13T02:54:46.016Z,955.46
2023-02-13T02:55:46.071Z,955.44
2023-02-13T02:56:45.999Z,955.47
2023-02-13T02:57:45.993Z,955.51
2023-02-13T02:58:45.981Z,955.48
2023-02-13T02:59:46.014Z,955.48
2023-02-13T03:00:46.046Z,955.50
2023-02-13T03:01:46.012Z,955.47
2023-02-13T03:02:45.958Z,955.47
2023-02-13T03:03:45.968Z,955.49
2023-02-13T03:04:45.944Z,955.48
2023-02-13T03:05:45.951Z,955.52
2023-02-13T03:06:45.887Z,955.54
2023-02-13T03:07:45.966Z,955.54
2023-02-13T03:08:45.884Z,955.53
2023-02-13T03:09:45.869Z,955.53
2023-02-13T03:10:45.889Z,955.51
2023-02-13T03:11:45.860Z,955.52
2023-02-13T03:12:45.840Z,955.55
2023-02-13T03:13:45.820Z,955.60
2023-02-13T03:14:45.808Z,955.59
2023-02-13T03:15:45.829Z,955.58
2023-02-13T03:16:45.840Z,955.57
2023-02-13T03:17:45.801Z,955.66
2023-02-13T03:18:45.767Z,955.58
2023-02-13T03:19:45.797Z,955.59
2023-02-13T03:20:45.768Z,955.63
2023-02-13T03:21:45.738Z,955.59
2023-02-13T03:22:45.792Z,955.62
2023-02-13T03:23:45.985Z,955.66
2023-02-13T03:24:45.755Z,955.62
2023-02-13T03:25:45.698Z,955.68
2023-02-13T03:26:45.730Z,955.64
2023-02-13T03:27:45.672Z,955.69
2023-02-13T03:28:45.685Z,955.68
2023-02-13T03:29:45.859Z,955.69
2023-02-13T03:30:45.681Z,955.70
2023-02-13T03:31:45.711Z,955.73
2023-02-13T03:32:45.626Z,955.72
2023-02-13T03:33:45.623Z,955.70
2023-02-13T03:34:45.618Z,955.74
2023-02-13T03:35:45.588Z,955.75
2023-02-13T03:36:45.625Z,955.75
2023-02-13T03:37:45.651Z,955.78
2023-02-13T03:38:45.634Z,955.78
2023-02-13T03:39:45.557Z,955.76
2023-02-13T03:40:45.542Z,955.77
2023-02-13T03:41:45.527Z,955.79
2023-02-13T03:42:45.512Z,955.75
2023-02-13T03:43:45.494Z,955.79
2023-02-13T03:44:45.521Z,955.77
2023-02-13T03:45:45.503Z,955.77
2023-02-13T03:46:45.650Z,955.77
2023-02-13T03:47:45.537Z,955.80
2023-02-13T03:48:45.520Z,955.77
2023-02-13T03:49:45.450Z,955.77
2023-02-13T03:50:45.461Z,955.74
2023-02-13T03:51:45.498Z,955.76
2023-02-13T03:52:45.452Z,955.75
2023-02-13T03:53:45.493Z,955.76
2023-02-13T03:54:45.445Z,955.76
2023-02-13T03:55:45.419Z,955.77
2023-02-13T03:56:45.372Z,955.82
2023-02-13T03:57:45.363Z,955.80
2023-02-13T03:58:45.353Z,955.81
2023-02-13T03:59:45.335Z,955.86
2023-02-13T04:00:45.363Z,955.87
2023-02-13T04:01:45.334Z,955.92
2023-02-13T04:02:45.299Z,955.88
2023-02-13T04:03:45.291Z,955.99
2023-02-13T04:04:45.276Z,955.92
2023-02-13T04:05:45.292Z,955.91
2023-02-13T04:06:45.277Z,955.93
2023-02-13T04:07:45.331Z,955.94
2023-02-13T04:08:45.277Z,955.94
2023-02-13T04:09:45.312Z,955.97
2023-02-13T04:10:45.222Z,955.95
2023-02-13T04:11:45.232Z,955.94
2023-02-13T04:12:45.223Z,955.93
2023-02-13T04:13:45.221Z,955.90
2023-02-13T04:14:45.190Z,955.94
2023-02-13T04:15:45.210Z,955.91
2023-02-13T04:16:45.247Z,955.89
2023-02-13T04:17:45.173Z,955.91
2023-02-13T04:18:45.143Z,955.93
2023-02-13T04:19:45.180Z,955.91
2023-02-13T04:20:45.115Z,955.95
2023-02-13T04:21:45.166Z,955.96
2023-02-13T04:22:45.103Z,955.95
2023-02-13T04:23:45.102Z,955.93
2023-02-13T04:24:45.113Z,955.92
2023-02-13T04:25:45.128Z,955.98
2023-02-13T04:26:45.084Z,956.00
2023-02-13T04:27:45.094Z,956.00
2023-02-13T04:28:45.068Z,956.00
2023-02-13T04:29:45.024Z,956.05
2023-02-13T04:30:45.274Z,956.02
2023-02-13T04:31:45.174Z,956.06
2023-02-13T04:32:44.993Z,956.05
2023-02-13T04:33:44.968Z,956.06
2023-02-13T04:34:44.969Z,956.05
2023-02-13T04:35:44.952Z,956.02
2023-02-13T04:36:44.986Z,956.05
2023-02-13T04:37:45.015Z,956.02
2023-02-13T04:38:44.969Z,956.02
2023-02-13T04:39:44.928Z,956.03
2023-02-13T04:40:44.950Z,956.06
2023-02-13T04:41:44.937Z,956.05
2023-02-13T04:42:44.889Z,956.02
2023-02-13T04:43:44.935Z,956.09
2023-02-13T04:44:44.886Z,956.06
2023-02-13T04:45:44.882Z,956.05
2023-02-13T04:46:49.851Z,956.08
2023-02-13T04:47:44.916Z,956.10
2023-02-13T04:48:44.813Z,956.12
2023-02-13T04:49:44.852Z,956.06
2023-02-13T04:50:44.808Z,956.07
2023-02-13T04:51:44.788Z,956.06
2023-02-13T04:52:44.788Z,956.01
2023-02-13T04:53:44.847Z,956.04
2023-02-13T04:54:44.836Z,956.03
2023-02-13T04:55:44.756Z,956.05
2023-02-13T04:56:44.768Z,955.99
2023-02-13T04:57:44.731Z,956.02
2023-02-13T04:58:44.768Z,955.99
2023-02-13T04:59:44.701Z,955.98
2023-02-13T05:00:44.746Z,955.97
2023-02-13T05:01:44.770Z,956.01
2023-02-13T05:02:44.696Z,956.06
2023-02-13T05:03:44.666Z,956.04
2023-02-13T05:04:44.776Z,956.06
2023-02-13T05:05:44.701Z,956.02
2023-02-13T05:06:44.670Z,956.02
2023-02-13T05:07:44.625Z,956.06
2023-02-13T05:08:44.656Z,956.00
2023-02-13T05:09:44.689Z,955.99
2023-02-13T05:10:44.588Z,956.04
2023-02-13T05:11:44.584Z,956.08
2023-02-13T05:12:44.688Z,956.08
2023-02-13T05:13:44.576Z,956.10
2023-02-13T05:14:44.634Z,956.13
2023-02-13T05:15:44.721Z,956.14
2023-02-13T05:16:44.884Z,956.16
2023-02-13T05:17:44.556Z,956.13
2023-02-13T05:18:44.540Z,956.18
2023-02-13T05:19:44.487Z,956.15
2023-02-13T05:20:44.521Z,956.16
2023-02-13T05:21:44.585Z,956.13
2023-02-13T05:22:44.501Z,956.16
2023-02-13T05:23:44.709Z,956.16
2023-02-13T05:24:44.493Z,956.18
2023-02-13T05:25:44.449Z,956.13
2023-02-13T05:26:44.422Z,956.17
2023-02-13T05:27:44.474Z,956.14
2023-02-13T05:28:44.433Z,956.16
2023-02-13T05:29:44.533Z,956.13
2023-02-13T05:30:44.406Z,956.11
2023-02-13T05:31:44.625Z,956.09
2023-02-13T05:32:44.356Z,956.11
2023-02-13T05:33:44.489Z,956.06
2023-02-13T05:34:44.340Z,956.07
2023-02-13T05:35:44.376Z,956.08
2023-02-13T05:36:44.538Z,956.07
2023-02-13T05:37:44.313Z,956.07
2023-02-13T05:38:44.316Z,956.11
2023-02-13T05:39:44.322Z,956.12
2023-02-13T05:40:44.349Z,956.11
2023-02-13T05:41:44.322Z,956.13
2023-02-13T05:42:44.254Z,956.10
2023-02-13T05:43:44.290Z,956.14
2023-02-13T05:44:44.303Z,956.13
2023-02-13T05:45:44.231Z,956.14
2023-02-13T05:46:44.248Z,956.14
2023-02-13T05:47:44.228Z,956.11
2023-02-13T05:48:44.197Z,956.10
2023-02-13T05:49:44.641Z,956.11
2023-02-13T05:50:44.281Z,956.13
2023-02-13T05:51:44.170Z,956.13
2023-02-13T05:52:44.157Z,956.14
2023-02-13T05:53:44.269Z,956.08
2023-02-13T05:54:44.204Z,956.09
2023-02-13T05:55:44.205Z,956.16
2023-02-13T05:56:44.109Z,956.14
2023-02-13T05:57:44.264Z,956.12
2023-02-13T05:58:44.094Z,956.11
2023-02-13T05:59:44.086Z,956.12
2023-02-13T06:00:44.154Z,956.12
2023-02-13T06:01:44.062Z,956.14
2023-02-13T06:02:44.109Z,956.09
2023-02-13T06:03:44.071Z,956.11
2023-02-13T06:04:44.031Z,956.11
2023-02-13T06:05:44.048Z,956.08
2023-02-13T06:06:44.079Z,956.02
2023-02-13T06:07:44.001Z,956.00
2023-02-13T06:08:44.001Z,956.06
2023-02-13T06:09:43.987Z,956.04
2023-02-13T06:10:45.254Z,956.06
2023-02-13T06:11:44.205Z,956.04
2023-02-13T06:12:43.989Z,956.07
2023-02-13T06:13:43.935Z,956.07
2023-02-13T06:14:44.058Z,956.04
2023-02-13T06:15:43.953Z,956.05
2023-02-13T06:16:44.008Z,956.12
2023-02-13T06:17:43.889Z,956.10
2023-02-13T06:18:43.980Z,956.13
2023-02-13T06:19:43.946Z,956.17
2023-02-13T06:20:43.863Z,956.18
2023-02-13T06:21:43.842Z,956.16
2023-02-13T06:22:43.882Z,956.20
2023-02-13T06:23:43.844Z,956.19
2023-02-13T06:24:43.887Z,956.23
2023-02-13T06:25:43.810Z,956.22
2023-02-13T06:26:43.908Z,956.18
2023-02-13T06:27:43.882Z,956.22
2023-02-13T06:28:44.013Z,956.20
2023-02-13T06:29:43.776Z,956.24
2023-02-13T06:30:43.806Z,956.20
2023-02-13T06:31:52.018Z,956.21
2023-02-13T06:32:43.728Z,956.21
2023-02-13T06:33:43.728Z,956.20
2023-02-13T06:34:43.858Z,956.23
2023-02-13T06:35:43.777Z,956.25
2023-02-13T06:36:43.701Z,956.24
2023-02-13T06:37:43.688Z,956.25
2023-02-13T06:38:43.739Z,956.31
2023-02-13T06:39:43.680Z,956.33
2023-02-13T06:40:43.706Z,956.28
2023-02-13T06:41:43.688Z,956.29
2023-02-13T06:42:43.659Z,956.29
2023-02-13T06:43:43.693Z,956.32
2023-02-13T06:44:43.761Z,956.31
2023-02-13T06:45:43.623Z,956.33
2023-02-13T06:46:43.728Z,956.35
2023-02-13T06:47:43.605Z,956.34
2023-02-13T06:48:43.565Z,956.38
2023-02-13T06:49:43.582Z,956.44
2023-02-13T06:50:43.612Z,956.42
2023-02-13T06:51:43.556Z,956.44
2023-02-13T06:52:43.934Z,956.42
2023-02-13T06:53:43.515Z,956.46
2023-02-13T06:54:47.697Z,956.45
2023-02-13T06:55:43.528Z,956.44
2023-02-13T06:56:43.491Z,956.47
2023-02-13T06:57:43.531Z,956.44
2023-02-13T06:58:43.491Z,956.45
2023-02-13T06:59:43.454Z,956.47
2023-02-13T07:00:43.931Z,956.51
2023-02-13T07:01:43.491Z,956.56
2023-02-13T07:02:43.570Z,956.53
2023-02-13T07:03:43.465Z,956.57
2023-02-13T07:04:43.415Z,956.59
2023-02-13T07:05:43.418Z,956.59
2023-02-13T07:06:43.407Z,956.58
2023-02-13T07:07:43.408Z,956.62
2023-02-13T07:08:43.411Z,956.59
2023-02-13T07:09:43.352Z,956.62
2023-02-13T07:10:43.347Z,956.62
2023-02-13T07:11:43.345Z,956.63
2023-02-13T07:12:44.607Z,956.64
2023-02-13T07:13:43.312Z,956.70
2023-02-13T07:14:43.300Z,956.67
2023-02-13T07:15:43.289Z,956.69
2023-02-13T07:16:47.923Z,956.67
2023-02-13T07:17:43.351Z,956.71
2023-02-13T07:18:43.261Z,956.73
2023-02-13T07:19:43.298Z,956.73
2023-02-13T07:20:43.279Z,956.70
2023-02-13T07:21:43.242Z,956.67
2023-02-13T07:22:43.249Z,956.67
2023-02-13T07:23:43.238Z,956.66
2023-02-13T07:24:43.207Z,956.66
2023-02-13T07:25:43.210Z,956.69
2023-02-13T07:26:43.182Z,956.68
2023-02-13T07:27:43.170Z,956.71
2023-02-13T07:28:43.400Z,956.70
2023-02-13T07:29:43.166Z,956.72
2023-02-13T07:30:43.147Z,956.74
2023-02-13T07:31:43.161Z,956.74
2023-02-13T07:32:43.111Z,956.73
2023-02-13T07:33:43.183Z,956.72
2023-02-13T07:34:59.621Z,956.71
2023-02-13T07:35:44.132Z,956.78
2023-02-13T07:36:43.073Z,956.77
2023-02-13T07:37:43.064Z,956.77
2023-02-13T07:38:43.049Z,956.80
2023-02-13T07:39:43.078Z,956.81
2023-02-13T07:40:43.052Z,956.83
2023-02-13T07:41:43.026Z,956.80
2023-02-13T07:42:43.010Z,956.84
2023-02-13T07:43:43.003Z,956.84
2023-02-13T07:44:43.016Z,956.86
2023-02-13T07:45:43.443Z,956.86
2023-02-13T07:46:43.004Z,956.91
2023-02-13T07:47:42.991Z,956.90
2023-02-13T07:48:42.947Z,956.92
2023-02-13T07:49:42.968Z,956.92
2023-02-13T07:50:42.931Z,956.92
2023-02-13T07:51:43.034Z,956.97
2023-02-13T07:52:42.982Z,956.94
2023-02-13T07:53:42.900Z,956.95
2023-02-13T07:54:42.887Z,956.96
2023-02-13T07:55:42.876Z,956.93
2023-02-13T07:56:42.870Z,956.96
2023-02-13T07:57:42.957Z,956.95
2023-02-13T07:58:42.842Z,956.96
2023-02-13T07:59:42.886Z,956.96
2023-02-13T08:00:43.502Z,956.96
2023-02-13T08:01:42.950Z,956.99
2023-02-13T08:02:42.824Z,956.97
2023-02-13T08:03:42.900Z,956.96
2023-02-13T08:04:42.782Z,956.94
2023-02-13T08:05:42.769Z,956.95
2023-02-13T08:06:42.792Z,956.93
2023-02-13T08:07:42.804Z,956.98
2023-02-13T08:08:42.736Z,956.94
2023-02-13T08:09:42.804Z,956.92
2023-02-13T08:10:42.720Z,956.89
2023-02-13T08:11:42.712Z,956.97
2023-02-13T08:12:42.706Z,956.99
2023-02-13T08:13:42.691Z,956.95
2023-02-13T08:14:42.725Z,956.98
2023-02-13T08:15:42.711Z,956.96
2023-02-13T08:16:42.789Z,956.94
2023-02-13T08:17:42.647Z,957.01
2023-02-13T08:18:42.630Z,956.95
2023-02-13T08:19:42.642Z,956.98
2023-02-13T08:20:42.634Z,956.95
2023-02-13T08:21:42.600Z,956.98
2023-02-13T08:22:42.590Z,956.97
2023-02-13T08:23:42.650Z,957.03
2023-02-13T08:24:42.588Z,956.99
2023-02-13T08:25:42.560Z,957.02
2023-02-13T08:26:42.558Z,957.02
2023-02-13T08:27:42.569Z,956.98
2023-02-13T08:28:42.588Z,956.98
2023-02-13T08:29:42.524Z,956.96
2023-02-13T08:30:42.581Z,956.96
2023-02-13T08:31:42.607Z,956.94
2023-02-13T08:32:53.797Z,956.98
2023-02-13T08:33:43.490Z,956.94
2023-02-13T08:34:42.594Z,956.91
2023-02-13T08:35:42.475Z,956.92
2023-02-13T08:36:42.534Z,956.90
2023-02-13T08:37:42.455Z,956.87
2023-02-13T08:38:42.451Z,956.94
2023-02-13T08:39:42.435Z,956.92
2023-02-13T08:40:42.425Z,956.87
2023-02-13T08:41:42.429Z,956.93
2023-02-13T08:42:42.479Z,956.91
2023-02-13T08:43:42.368Z,956.93
2023-02-13T08:44:42.382Z,956.93
2023-02-13T08:45:42.394Z,956.88
2023-02-13T08:46:42.456Z,956.92
2023-02-13T08:47:42.424Z,956.90
2023-02-13T08:48:42.357Z,956.91
2023-02-13T08:49:42.309Z,956.87
2023-02-13T08:50:42.337Z,956.89
2023-02-13T08:51:42.281Z,956.91
2023-02-13T08:52:42.326Z,956.95
2023-02-13T08:53:42.290Z,956.91
2023-02-13T08:54:42.305Z,956.95
2023-02-13T08:55:42.348Z,956.94
2023-02-13T08:56:42.242Z,956.97
2023-02-13T08:57:42.235Z,956.95
2023-02-13T08:58:42.236Z,956.98
2023-02-13T08:59:42.212Z,956.95
2023-02-13T09:00:42.230Z,956.96
2023-02-13T09:01:42.309Z,956.99
2023-02-13T09:02:42.428Z,956.96
2023-02-13T09:03:42.222Z,956.92
2023-02-13T09:04:42.190Z,956.97
2023-02-13T09:05:42.199Z,956.93
2023-02-13T09:06:42.241Z,956.90
2023-02-13T09:07:42.180Z,956.88
2023-02-13T09:08:42.119Z,956.92
2023-02-13T09:09:42.188Z,956.96
2023-02-13T09:10:42.150Z,956.99
2023-02-13T09:11:42.178Z,956.99
2023-02-13T09:12:42.144Z,956.96
2023-02-13T09:13:42.132Z,956.92
2023-02-13T09:14:42.093Z,956.94
2023-02-13T09:15:42.129Z,956.94
2023-02-13T09:16:42.178Z,956.93
2023-02-13T09:17:42.063Z,956.94
2023-02-13T09:18:42.119Z,956.94
2023-02-13T09:19:42.055Z,956.98
2023-02-13T09:20:41.996Z,957.00
2023-02-13T09:21:42.037Z,956.91
2023-02-13T09:22:42.076Z,956.92
2023-02-13T09:23:41.961Z,956.94
2023-02-13T09:24:41.963Z,956.92
2023-02-13T09:25:41.944Z,956.99
2023-02-13T09:26:41.998Z,956.98
2023-02-13T09:27:41.944Z,956.98
2023-02-13T09:28:42.028Z,957.00
2023-02-13T09:29:42.435Z,956.98
2023-02-13T09:30:41.950Z,956.94
2023-02-13T09:31:42.144Z,956.91
2023-02-13T09:32:42.018Z,956.90
2023-02-13T09:33:41.861Z,956.91
2023-02-13T09:34:41.875Z,956.97
2023-02-13T09:35:41.833Z,956.92
2023-02-13T09:36:41.881Z,956.89
2023-02-13T09:37:41.843Z,956.93
2023-02-13T09:38:41.817Z,956.89
2023-02-13T09:39:41.799Z,956.96
2023-02-13T09:40:41.977Z,956.98
2023-02-13T09:41:41.903Z,956.95
2023-02-13T09:42:41.894Z,956.94
2023-02-13T09:43:41.816Z,956.92
2023-02-13T09:44:41.734Z,956.96
2023-02-13T09:45:41.726Z,956.95
2023-02-13T09:46:41.808Z,956.90
2023-02-13T09:47:41.799Z,956.87
2023-02-13T09:48:41.718Z,956.89
2023-02-13T09:49:41.687Z,956.89
2023-02-13T09:50:41.686Z,956.94
2023-02-13T09:51:41.677Z,956.96
2023-02-13T09:52:42.057Z,956.98
2023-02-13T09:53:41.652Z,956.97
2023-02-13T09:54:41.719Z,956.95
2023-02-13T09:55:41.683Z,956.91
2023-02-13T09:56:41.611Z,957.01
2023-02-13T09:57:41.610Z,956.96
2023-02-13T09:58:41.668Z,956.98
2023-02-13T09:59:41.605Z,956.96
2023-02-13T10:00:41.629Z,956.95
2023-02-13T10:01:41.616Z,956.93
2023-02-13T10:02:41.702Z,956.97
2023-02-13T10:03:41.543Z,956.92
2023-02-13T10:04:41.584Z,956.89
2023-02-13T10:05:41.533Z,956.92
2023-02-13T10:06:41.494Z,956.91
2023-02-13T10:07:41.496Z,956.91
2023-02-13T10:08:41.643Z,956.90
2023-02-13T10:09:41.499Z,956.95
2023-02-13T10:10:41.473Z,956.89
2023-02-13T10:11:41.499Z,956.84
2023-02-13T10:12:41.443Z,956.80
2023-02-13T10:13:42.432Z,956.79
2023-02-13T10:14:42.404Z,956.80
2023-02-13T10:15:41.553Z,956.81
2023-02-13T10:16:52.119Z,956.82
2023-02-13T10:17:41.618Z,956.80
2023-02-13T10:18:41.373Z,956.84
2023-02-13T10:19:41.357Z,956.80
2023-02-13T10:20:41.361Z,956.77
2023-02-13T10:21:41.352Z,956.75
2023-02-13T10:22:41.361Z,956.71
2023-02-13T10:23:41.432Z,956.68
2023-02-13T10:24:41.343Z,956.74
2023-02-13T10:25:41.355Z,956.74
2023-02-13T10:26:41.350Z,956.75
2023-02-13T10:27:41.291Z,956.63
2023-02-13T10:28:41.463Z,956.70
2023-02-13T10:29:41.282Z,956.62
2023-02-13T10:30:41.281Z,956.65
2023-02-13T10:31:41.428Z,956.63
2023-02-13T10:32:41.321Z,956.61
2023-02-13T10:33:41.286Z,956.50
2023-02-13T10:34:41.231Z,956.46
2023-02-13T10:35:41.219Z,956.47
2023-02-13T10:36:41.186Z,956.50
2023-02-13T10:37:41.201Z,956.48
2023-02-13T10:38:41.229Z,956.47
2023-02-13T10:39:41.149Z,956.43
2023-02-13T10:40:41.197Z,956.45
2023-02-13T10:41:41.143Z,956.37
2023-02-13T10:42:41.206Z,956.39
2023-02-13T10:43:41.099Z,956.31
2023-02-13T10:44:41.163Z,956.28
2023-02-13T10:45:41.145Z,956.24
2023-02-13T10:46:41.362Z,956.21
2023-02-13T10:47:41.104Z,956.19
2023-02-13T10:48:41.101Z,956.23
2023-02-13T10:49:41.045Z,956.20
2023-02-13T10:50:41.065Z,956.18
2023-02-13T10:51:41.077Z,956.09
2023-02-13T10:52:41.089Z,956.06
2023-02-13T10:53:41.011Z,956.01
2023-02-13T10:54:41.074Z,955.97
2023-02-13T10:55:41.112Z,955.98
2023-02-13T10:56:40.978Z,955.94
2023-02-13T10:57:41.013Z,955.93
2023-02-13T10:58:40.995Z,955.83
2023-02-13T10:59:40.947Z,955.81
2023-02-13T11:00:42.884Z,955.85
2023-02-13T11:01:40.929Z,955.85
2023-02-13T11:02:40.933Z,955.79
2023-02-13T11:03:40.962Z,955.80
2023-02-13T11:04:40.961Z,955.78
2023-02-13T11:05:40.862Z,955.73
2023-02-13T11:06:40.870Z,955.74
2023-02-13T11:07:40.925Z,955.66
2023-02-13T11:08:40.937Z,955.64
2023-02-13T11:09:40.867Z,955.59
2023-02-13T11:10:40.855Z,955.58
2023-02-13T11:11:40.863Z,955.58
2023-02-13T11:12:40.803Z,955.61
2023-02-13T11:13:40.818Z,955.61
2023-02-13T11:14:40.848Z,955.57
2023-02-13T11:15:40.821Z,955.55
2023-02-13T11:16:45.454Z,955.52
2023-02-13T11:17:40.766Z,955.51
2023-02-13T11:18:40.831Z,955.47
2023-02-13T11:19:40.768Z,955.43
2023-02-13T11:20:40.723Z,955.40
2023-02-13T11:21:40.736Z,955.38
2023-02-13T11:22:40.692Z,955.36
2023-02-13T11:23:40.675Z,955.36
2023-02-13T11:24:40.705Z,955.34
2023-02-13T11:25:40.692Z,955.35
2023-02-13T11:26:40.645Z,955.34
2023-02-13T11:27:40.633Z,955.32
2023-02-13T11:28:40.744Z,955.27
2023-02-13T11:29:40.674Z,955.31
2023-02-13T11:30:40.639Z,955.23
2023-02-13T11:31:40.861Z,955.21
2023-02-13T11:32:48.160Z,955.23
2023-02-13T11:33:40.591Z,955.23
2023-02-13T11:34:40.613Z,955.22
2023-02-13T11:35:40.654Z,955.23
2023-02-13T11:36:40.547Z,955.27
2023-02-13T11:37:40.568Z,955.25
2023-02-13T11:38:40.582Z,955.26
2023-02-13T11:39:40.518Z,955.25
2023-02-13T11:40:40.553Z,955.23
2023-02-13T11:41:40.489Z,955.24
2023-02-13T11:42:40.687Z,955.23
2023-02-13T11:43:40.566Z,955.21
2023-02-13T11:44:40.523Z,955.20
2023-02-13T11:45:40.492Z,955.20
2023-02-13T11:46:45.007Z,955.13
2023-02-13T11:47:40.452Z,955.16
2023-02-13T11:48:40.469Z,955.12
2023-02-13T11:49:40.719Z,955.13
2023-02-13T11:50:40.449Z,955.12
2023-02-13T11:51:40.445Z,955.12
2023-02-13T11:52:40.392Z,955.17
2023-02-13T11:53:40.374Z,955.13
2023-02-13T11:54:40.417Z,955.17
2023-02-13T11:55:40.434Z,955.14
2023-02-13T11:56:55.578Z,955.14
2023-02-13T11:57:41.379Z,955.12
2023-02-13T11:58:40.417Z,955.14
2023-02-13T11:59:40.322Z,955.14
2023-02-13T12:00:40.466Z,955.11
2023-02-13T12:01:40.297Z,955.12
2023-02-13T12:02:40.461Z,955.12
2023-02-13T12:03:40.386Z,955.08
2023-02-13T12:04:40.272Z,955.08
2023-02-13T12:05:40.301Z,955.11
2023-02-13T12:06:40.251Z,955.17
2023-02-13T12:07:41.039Z,955.18
2023-02-13T12:08:40.229Z,955.14
2023-02-13T12:09:40.216Z,955.08
2023-02-13T12:10:40.218Z,955.07
2023-02-13T12:11:41.059Z,955.08
2023-02-13T12:12:40.227Z,955.12
2023-02-13T12:13:40.228Z,955.15
2023-02-13T12:14:40.164Z,955.10
2023-02-13T12:15:40.153Z,955.05
2023-02-13T12:16:40.280Z,955.08
2023-02-13T12:17:40.179Z,955.05
2023-02-13T12:18:40.166Z,955.04
2023-02-13T12:19:40.180Z,955.06
2023-02-13T12:20:40.114Z,955.00
2023-02-13T12:21:40.097Z,954.98
2023-02-13T12:22:40.202Z,954.96
2023-02-13T12:23:40.089Z,954.92
2023-02-13T12:24:40.086Z,954.93
2023-02-13T12:25:40.098Z,954.89
2023-02-13T12:26:40.984Z,954.86
2023-02-13T12:27:40.035Z,954.91
2023-02-13T12:28:40.105Z,954.83